Time;durP1;ratioP1;P1;durP2;ratioP2;P2;SDS_P1;SDS_P2;PMS_P1;PMS_P2;Temp;Humidity;BMP_temperature;BMP_pressure;BME280_temperature;BME280_humidity;BME280_pressure;Samples;Min_cycle;Max_cycle;Signal;HPM_P1;HPM_P2
2021/05/11 00:00:40;;;;;;;6.47;5.87;;;;;;;14.40;75.21;100748.31;5118937;28;20433;-65
2021/05/11 00:03:05;;;;;;;6.63;6.00;;;;;;;14.39;75.55;100750.94;5119111;28;20175;-65
2021/05/11 00:05:31;;;;;;;7.83;5.77;;;;;;;14.58;74.64;100735.94;5104140;28;20202;-64
2021/05/11 00:07:57;;;;;;;7.37;5.20;;;;;;;13.80;77.43;100733.75;5098609;28;20176;-64
2021/05/11 00:10:24;;;;;;;8.50;5.83;;;;;;;14.24;76.50;100736.16;5098823;28;20518;-64
2021/05/11 00:12:50;;;;;;;6.10;5.50;;;;;;;14.31;76.72;100733.50;5098914;28;20413;-64
2021/05/11 00:15:16;;;;;;;7.50;5.70;;;;;;;14.47;75.74;100731.63;5097987;28;20439;-65
2021/05/11 00:17:42;;;;;;;6.13;5.50;;;;;;;14.27;76.43;100734.38;5098473;28;20199;-65
2021/05/11 00:20:08;;;;;;;7.43;5.67;;;;;;;14.55;76.50;100739.47;5098671;28;20446;-64
2021/05/11 00:22:33;;;;;;;8.87;6.00;;;;;;;14.42;76.31;100737.78;5099517;28;20441;-64
2021/05/11 00:24:58;;;;;;;6.27;5.67;;;;;;;13.90;77.85;100736.34;5098281;28;20788;-65
2021/05/11 00:27:24;;;;;;;6.07;5.47;;;;;;;14.31;76.16;100727.38;5098870;28;20168;-64
2021/05/11 00:29:49;;;;;;;8.00;6.07;;;;;;;14.05;76.50;100714.41;5098452;28;20229;-65
2021/05/11 00:32:14;;;;;;;6.23;5.60;;;;;;;13.99;77.19;100723.19;5118035;28;20529;-65
2021/05/11 00:34:39;;;;;;;6.53;5.90;;;;;;;14.62;75.17;100728.03;5118992;28;20159;-64
2021/05/11 00:37:05;;;;;;;7.97;6.20;;;;;;;15.18;72.52;100732.00;5116523;28;20190;-63
2021/05/11 00:39:30;;;;;;;6.83;5.77;;;;;;;15.55;71.48;100736.88;5118675;28;20258;-63
2021/05/11 00:41:55;;;;;;;6.10;5.60;;;;;;;14.98;72.99;100746.19;5118879;28;20232;-63
2021/05/11 00:44:22;;;;;;;7.07;6.20;;;;;;;15.29;71.53;100738.88;5118519;28;20203;-64
2021/05/11 00:46:56;;;;;;;6.50;5.90;;;;;;;14.39;74.52;100735.19;5118695;28;20509;-64
2021/05/11 00:49:22;;;;;;;6.63;5.37;;;;;;;14.24;75.74;100738.78;5118519;28;20416;-64
2021/05/11 00:51:48;;;;;;;5.73;5.13;;;;;;;13.66;76.89;100713.72;5118399;28;20450;-64
2021/05/11 00:54:14;;;;;;;6.30;5.80;;;;;;;13.54;79.74;100693.66;5116832;28;20195;-64
2021/05/11 00:56:40;;;;;;;6.87;6.27;;;;;;;13.89;78.09;100693.50;5118479;28;20746;-64
2021/05/11 00:59:10;;;;;;;8.87;7.00;;;;;;;14.17;76.96;100702.97;5118510;28;20168;-64
2021/05/11 01:01:36;;;;;;;6.60;6.00;;;;;;;13.84;77.91;100710.13;5118600;28;20198;-64
2021/05/11 01:04:02;;;;;;;7.90;6.40;;;;;;;14.53;75.58;100707.13;5118539;28;20392;-64
2021/05/11 01:06:27;;;;;;;7.27;6.20;;;;;;;14.25;76.43;100699.44;5118410;28;20203;-64
2021/05/11 01:08:52;;;;;;;6.43;5.73;;;;;;;13.88;78.45;100691.78;5118804;28;20191;-64
2021/05/11 01:11:18;;;;;;;9.00;6.83;;;;;;;14.02;76.44;100704.81;5119994;28;20183;-63
2021/05/11 01:13:43;;;;;;;8.13;6.90;;;;;;;13.93;77.71;100710.09;5122277;28;20559;-65
2021/05/11 01:16:09;;;;;;;8.27;6.90;;;;;;;14.61;76.16;100710.56;5122802;28;20194;-64
2021/05/11 01:18:36;;;;;;;10.07;7.30;;;;;;;15.19;73.76;100712.72;5121441;28;20172;-64
2021/05/11 01:21:18;;;;;;;7.27;6.57;;;;;;;14.38;76.78;100717.72;5121951;28;20806;-64
2021/05/11 01:24:06;;;;;;;7.00;6.30;;;;;;;14.59;76.23;100711.47;5121920;28;20421;-65
2021/05/11 01:26:44;;;;;;;7.50;6.33;;;;;;;14.09;77.78;100701.28;5121930;28;20465;-64
2021/05/11 01:29:25;;;;;;;7.97;7.03;;;;;;;14.38;75.87;100691.50;5119267;28;20431;-64
2021/05/11 01:32:21;;;;;;;10.43;7.17;;;;;;;14.77;74.93;100695.59;5121861;28;20421;-65
2021/05/11 01:51:27;;;;;;;8.70;7.70;;;;;;;14.78;75.56;100686.84;5101014;28;20729;-64
2021/05/11 01:54:17;;;;;;;7.40;6.60;;;;;;;14.72;75.06;100692.16;5100993;28;20512;-65
2021/05/11 02:22:37;;;;;;;6.90;6.27;;;;;;;13.18;80.01;100679.75;5101051;28;20385;-64
2021/05/11 02:24:00;;;;;;;7.57;5.80;;;;;;;12.94;80.45;100690.25;5100355;28;20432;-63
2021/05/11 02:26:25;;;;;;;7.20;5.80;;;;;;;13.00;79.53;100694.59;5100413;28;20457;-64
2021/05/11 02:28:50;;;;;;;8.33;6.80;;;;;;;13.39;78.33;100691.97;5101318;28;20196;-64
2021/05/11 02:31:16;;;;;;;7.37;6.60;;;;;;;13.08;80.14;100690.28;5100138;28;20200;-64
2021/05/11 02:33:41;;;;;;;8.73;6.60;;;;;;;13.22;79.57;100690.22;5100691;28;20218;-63
2021/05/11 02:36:06;;;;;;;11.20;7.60;;;;;;;13.29;78.69;100689.34;5100302;28;20552;-62
2021/05/11 02:38:32;;;;;;;8.77;7.70;;;;;;;13.04;80.68;100700.72;5099506;28;20172;-64
2021/05/11 02:40:57;;;;;;;8.10;7.37;;;;;;;13.66;77.81;100687.53;5099914;28;20548;-64
2021/05/11 02:43:27;;;;;;;8.37;7.57;;;;;;;14.03;75.91;100672.50;5100203;28;20172;-64
2021/05/11 02:45:52;;;;;;;8.03;7.17;;;;;;;13.82;77.31;100655.13;5100087;28;20208;-64
2021/05/11 02:48:18;;;;;;;8.77;7.90;;;;;;;13.85;77.60;100643.75;5100494;28;20874;-63
2021/05/11 02:50:43;;;;;;;9.30;8.03;;;;;;;12.93;80.57;100656.25;5099805;28;20176;-64
2021/05/11 02:53:08;;;;;;;7.80;7.00;;;;;;;13.51;78.43;100650.03;5099936;28;20183;-64
2021/05/11 02:55:33;;;;;;;9.40;7.77;;;;;;;13.81;78.05;100651.66;5100463;28;20200;-63
2021/05/11 02:57:59;;;;;;;8.70;7.90;;;;;;;13.44;78.62;100650.94;5099778;28;20180;-63
2021/05/11 03:00:26;;;;;;;9.07;8.07;;;;;;;14.01;77.71;100640.16;5099659;28;20195;-64
2021/05/11 03:02:52;;;;;;;8.73;7.90;;;;;;;13.25;78.50;100637.00;5099951;28;20171;-64
2021/05/11 03:05:18;;;;;;;9.50;8.60;;;;;;;13.16;80.55;100635.25;5099626;28;20461;-64
2021/05/11 03:07:43;;;;;;;9.10;8.20;;;;;;;13.14;80.31;100624.81;5099594;28;20188;-64
2021/05/11 03:10:10;;;;;;;8.83;7.90;;;;;;;14.04;76.88;100600.81;5099902;28;20400;-64
2021/05/11 03:12:35;;;;;;;9.50;8.60;;;;;;;14.22;75.01;100594.59;5099510;28;20491;-64
2021/05/11 03:15:01;;;;;;;8.40;6.90;;;;;;;13.68;77.07;100615.91;5099328;28;20465;-65
2021/05/11 03:17:27;;;;;;;7.10;5.97;;;;;;;12.98;78.74;100651.88;5099776;28;20165;-65
2021/05/11 03:19:52;;;;;;;10.50;7.77;;;;;;;14.16;75.57;100670.66;5099380;28;20177;-66
2021/05/11 03:22:17;;;;;;;8.73;7.83;;;;;;;14.90;72.70;100695.50;5099082;28;20532;-65
2021/05/11 03:24:45;;;;;;;9.00;8.10;;;;;;;14.94;72.38;100697.22;5102115;28;20223;-64
2021/05/11 03:27:15;;;;;;;9.27;6.70;;;;;;;14.78;71.63;100701.72;5099235;28;20557;-64
2021/05/11 03:29:41;;;;;;;7.10;6.10;;;;;;;14.53;72.45;100695.75;5099320;28;20423;-64
2021/05/11 03:32:07;;;;;;;6.30;5.70;;;;;;;13.43;75.86;100701.56;5098285;28;20425;-64
2021/05/11 03:34:33;;;;;;;6.73;5.73;;;;;;;13.63;76.21;100699.72;5099014;28;20448;-65
2021/05/11 03:36:59;;;;;;;6.97;5.77;;;;;;;14.05;74.57;100698.69;5099581;28;20402;-64
2021/05/11 03:39:24;;;;;;;6.50;5.90;;;;;;;13.88;74.13;100688.28;5098669;28;20441;-64
2021/05/11 03:41:56;;;;;;;6.33;5.73;;;;;;;14.03;74.00;100656.78;5098936;28;20179;-65
2021/05/11 03:44:25;;;;;;;6.90;6.10;;;;;;;13.96;74.09;100652.41;5099336;28;20160;-65
2021/05/11 03:46:50;;;;;;;38.10;27.27;;;;;;;13.93;74.10;100657.69;5098809;28;20414;-65
2021/05/11 03:49:15;;;;;;;6.27;5.67;;;;;;;14.66;71.24;100665.94;5098809;28;20410;-64
2021/05/11 03:51:41;;;;;;;8.47;7.33;;;;;;;14.08;72.53;100672.47;5099023;28;20171;-64
2021/05/11 03:54:08;;;;;;;6.63;5.80;;;;;;;13.99;73.42;100673.41;5098897;28;20208;-64
2021/05/11 03:56:33;;;;;;;7.43;6.70;;;;;;;14.19;73.43;100681.13;5098702;28;20180;-64
2021/05/11 03:58:59;;;;;;;5.37;4.87;;;;;;;13.39;75.34;100694.59;5099379;28;20475;-63
2021/05/11 04:01:24;;;;;;;5.63;5.00;;;;;;;13.26;75.83;100693.69;5098344;28;20187;-64
2021/05/11 04:03:49;;;;;;;6.63;5.70;;;;;;;13.46;75.27;100678.84;5098438;28;20168;-64
2021/05/11 04:06:15;;;;;;;5.10;4.67;;;;;;;13.10;76.96;100680.66;5098702;28;20565;-64
2021/05/11 04:16:35;;;;;;;7.60;5.63;;;;;;;13.67;75.65;100682.28;5098427;28;20540;-64
2021/05/11 04:19:00;;;;;;;6.30;5.70;;;;;;;14.07;74.46;100671.59;5098643;28;20475;-64
2021/05/11 04:21:26;;;;;;;6.20;4.60;;;;;;;14.17;72.98;100661.03;5104398;28;20428;-65
2021/05/11 04:23:51;;;;;;;6.97;4.60;;;;;;;14.11;72.87;100669.81;5119111;28;20159;-64
2021/05/11 04:26:18;;;;;;;7.80;4.50;;;;;;;14.24;72.60;100660.97;5118671;28;20264;-65
2021/05/11 04:28:45;;;;;;;7.53;4.93;;;;;;;13.96;73.34;100668.16;5118717;28;20451;-64
2021/05/11 04:31:10;;;;;;;5.90;4.60;;;;;;;14.53;71.13;100666.91;5118950;28;20792;-63
2021/05/11 04:33:35;;;;;;;5.70;3.70;;;;;;;12.83;76.17;100685.91;5118579;28;20409;-63
2021/05/11 04:36:03;;;;;;;6.23;4.03;;;;;;;13.44;73.99;100696.31;5116696;28;20175;-64
2021/05/11 04:38:28;;;;;;;7.67;4.63;;;;;;;14.17;71.23;100701.25;5116351;28;20217;-64
2021/05/11 04:40:53;;;;;;;6.47;4.37;;;;;;;13.91;72.92;100723.22;5106959;28;20400;-64
2021/05/11 04:43:20;;;;;;;5.80;4.50;;;;;;;14.31;70.15;100740.47;5119312;28;20182;-64
2021/05/11 04:45:46;;;;;;;4.43;4.03;;;;;;;14.71;68.90;100736.75;5107292;28;20510;-64
2021/05/11 04:48:11;;;;;;;5.50;4.07;;;;;;;14.46;68.67;100734.28;5102293;28;20510;-64
2021/05/11 04:50:37;;;;;;;5.77;5.23;;;;;;;14.22;68.87;100740.53;5101900;28;20430;-64
2021/05/11 04:53:02;;;;;;;4.60;3.70;;;;;;;14.05;68.71;100744.13;5102773;28;20168;-64
2021/05/11 04:55:28;;;;;;;4.30;3.60;;;;;;;13.68;70.14;100738.13;5102114;28;20557;-64
2021/05/11 04:57:53;;;;;;;6.87;4.27;;;;;;;13.90;70.20;100728.47;5101895;28;20165;-64
2021/05/11 05:00:19;;;;;;;4.90;4.00;;;;;;;14.45;69.34;100722.91;5102278;28;20404;-64
2021/05/11 05:02:46;;;;;;;5.10;3.80;;;;;;;14.07;69.93;100725.75;5101685;28;20173;-64
2021/05/11 05:05:12;;;;;;;7.23;4.73;;;;;;;14.49;68.68;100722.03;5118587;28;20203;-64
2021/05/11 05:07:39;;;;;;;7.00;4.70;;;;;;;14.72;68.50;100726.28;5132290;27;20412;-64
2021/05/11 05:10:05;;;;;;;5.10;4.30;;;;;;;14.56;69.63;100740.31;5109107;28;20501;-64
2021/05/11 05:12:30;;;;;;;6.23;4.63;;;;;;;14.74;68.02;100740.22;5121909;28;20508;-63
2021/05/11 05:14:56;;;;;;;7.80;4.43;;;;;;;14.51;68.50;100731.63;5111169;28;20430;-63
2021/05/11 05:17:21;;;;;;;4.97;4.07;;;;;;;14.29;69.25;100729.16;5101430;28;20164;-64
2021/05/11 05:19:46;;;;;;;7.63;4.63;;;;;;;14.40;69.33;100729.09;5101720;28;20217;-65
2021/05/11 05:22:12;;;;;;;7.07;4.80;;;;;;;14.19;70.58;100727.44;5101759;28;20221;-64
2021/05/11 05:24:43;;;;;;;5.50;4.80;;;;;;;14.36;69.39;100725.59;5100584;28;20222;-64
2021/05/11 05:27:26;;;;;;;6.37;4.43;;;;;;;13.85;70.64;100728.47;5101554;28;20459;-64
2021/05/11 05:29:51;;;;;;;7.30;5.00;;;;;;;14.37;70.34;100722.09;5101319;28;20426;-64
2021/05/11 05:32:17;;;;;;;6.00;5.40;;;;;;;14.58;70.13;100715.81;5110881;28;20450;-64
2021/05/11 05:34:43;;;;;;;7.07;5.17;;;;;;;14.57;71.03;100734.19;5100546;28;20163;-64
2021/05/11 05:37:09;;;;;;;6.47;5.20;;;;;;;13.82;71.60;100737.22;5101366;28;20168;-64
2021/05/11 05:39:46;;;;;;;5.90;5.37;;;;;;;14.26;71.50;100735.28;5103660;28;20186;-64
2021/05/11 05:42:11;;;;;;;8.00;5.53;;;;;;;14.59;70.33;100737.69;5100869;28;20446;-63
2021/05/11 05:44:37;;;;;;;6.53;5.10;;;;;;;14.53;70.59;100746.50;5100832;28;20463;-62
2021/05/11 05:47:02;;;;;;;8.43;6.30;;;;;;;14.80;70.19;100734.94;5100360;28;20188;-63
2021/05/11 05:49:35;;;;;;;9.20;5.80;;;;;;;14.68;69.51;100721.94;5100601;28;20201;-64
2021/05/11 05:52:05;;;;;;;13.03;7.30;;;;;;;14.53;70.08;100707.13;5102675;28;20196;-64
2021/05/11 05:54:30;;;;;;;12.87;10.77;;;;;;;14.65;69.43;100700.94;5102630;28;20462;-64
2021/05/11 05:56:55;;;;;;;6.33;4.93;;;;;;;14.28;70.62;100706.41;5108122;28;20820;-64
2021/05/11 05:59:21;;;;;;;7.33;6.60;;;;;;;14.41;69.71;100701.94;5118080;28;20191;-63
2021/05/11 06:01:48;;;;;;;7.43;5.53;;;;;;;14.26;70.85;100685.47;5117591;27;20522;-64
2021/05/11 06:04:15;;;;;;;5.50;4.60;;;;;;;14.15;70.92;100688.16;5121206;28;20160;-65
2021/05/11 06:06:41;;;;;;;5.47;4.97;;;;;;;14.39;70.41;100695.88;5120488;28;20445;-64
2021/05/11 06:09:15;;;;;;;5.57;4.60;;;;;;;13.87;71.87;100700.53;5120218;28;20420;-63
2021/05/11 06:11:54;;;;;;;6.97;5.10;;;;;;;14.07;71.06;100700.44;5120842;28;20250;-63
2021/05/11 06:17:02;;;;;;;5.37;4.87;;;;;;;14.24;69.67;100694.22;5121001;28;20666;-64
2021/05/11 06:17:16;;;;;;;10.33;8.10;;;;;;;14.21;69.99;100699.47;5099826;28;20415;-64
2021/05/11 06:19:42;;;;;;;6.13;5.53;;;;;;;14.37;69.95;100695.88;5100929;28;20453;-65
2021/05/11 06:22:07;;;;;;;6.50;5.50;;;;;;;14.59;69.56;100701.81;5100893;28;20487;-65
2021/05/11 06:24:33;;;;;;;6.00;5.40;;;;;;;14.06;71.17;100701.31;5100262;28;20450;-65
2021/05/11 06:26:58;;;;;;;6.60;5.60;;;;;;;14.30;70.52;100704.66;5117472;28;20493;-65
2021/05/11 06:29:26;;;;;;;4.97;4.57;;;;;;;14.42;70.07;100701.97;5121401;28;20242;-65
2021/05/11 06:31:51;;;;;;;8.20;5.33;;;;;;;14.37;70.43;100698.50;5114547;27;20222;-65
2021/05/11 06:34:16;;;;;;;6.20;5.07;;;;;;;13.94;71.66;100706.63;5116334;27;20425;-65
2021/05/11 06:36:42;;;;;;;6.30;5.70;;;;;;;14.14;70.50;100693.41;5128623;27;20468;-65
2021/05/11 06:39:10;;;;;;;7.30;5.80;;;;;;;14.20;71.15;100680.25;5107816;27;20321;-65
2021/05/11 06:41:36;;;;;;;8.43;5.80;;;;;;;14.15;70.62;100682.00;5126859;27;20515;-65
2021/05/11 06:44:08;;;;;;;6.07;5.43;;;;;;;14.02;71.15;100681.22;5134635;27;20683;-65
2021/05/11 06:54:11;;;;;;;5.20;4.47;;;;;;;13.72;70.79;100669.13;5101748;28;20418;-64
2021/05/11 06:56:39;;;;;;;6.30;5.10;;;;;;;14.19;69.84;100661.91;5099585;28;20403;-64
2021/05/11 06:59:04;;;;;;;7.73;4.50;;;;;;;14.18;69.61;100652.28;5099259;28;20865;-65
2021/05/11 07:01:29;;;;;;;6.67;4.93;;;;;;;14.10;69.84;100650.59;5117608;28;20439;-64
2021/05/11 07:03:55;;;;;;;7.90;5.77;;;;;;;13.92;71.28;100642.84;5119986;28;20220;-64
2021/05/11 07:06:20;;;;;;;7.60;4.90;;;;;;;14.25;69.52;100643.53;5122040;27;20214;-64
2021/05/11 07:08:51;;;;;;;5.20;4.47;;;;;;;14.21;69.89;100640.03;5117057;27;20567;-64
2021/05/11 07:13:45;;;;;;;4.70;3.70;;;;;;;13.62;70.90;100627.25;5110059;28;20441;-64
2021/05/11 07:16:10;;;;;;;6.20;4.63;;;;;;;13.12;72.17;100629.19;5119109;28;20470;-64
2021/05/11 07:18:35;;;;;;;5.73;3.97;;;;;;;13.73;70.09;100616.72;5118160;28;20178;-64
2021/05/11 07:21:01;;;;;;;4.80;3.80;;;;;;;13.36;71.26;100624.75;5101334;28;20233;-63
2021/05/11 07:23:27;;;;;;;6.13;4.03;;;;;;;13.77;70.00;100615.88;5117313;28;20248;-66
2021/05/11 07:26:08;;;;;;;5.77;3.63;;;;;;;14.06;68.63;100599.06;5110007;27;20319;-64
2021/05/11 07:29:11;;;;;;;8.83;6.50;;;;;;;13.85;69.49;100601.84;5119016;27;20490;-65
2021/05/11 07:31:27;;;;;;;5.37;3.97;;;;;;;13.73;68.56;100608.88;5110726;28;20473;-66
2021/05/11 07:33:54;;;;;;;4.80;4.20;;;;;;;13.60;69.53;100601.97;5104095;28;20471;-65
2021/05/11 07:36:20;;;;;;;4.20;3.40;;;;;;;13.10;70.33;100609.97;5102021;28;20242;-65
2021/05/11 07:38:46;;;;;;;3.97;3.63;;;;;;;12.93;72.09;100615.25;5118643;28;20682;-65
2021/05/11 07:41:14;;;;;;;4.30;3.40;;;;;;;13.22;71.86;100610.81;5118678;28;20456;-65
2021/05/11 07:43:41;;;;;;;3.77;3.37;;;;;;;13.70;69.89;100603.66;5101872;28;20184;-66
2021/05/11 08:04:38;;;;;;;4.40;3.70;;;;;;;14.63;66.57;100597.78;5117143;28;20413;-64
2021/05/11 08:17:43;;;;;;;4.47;3.63;;;;;;;14.14;67.68;100606.88;5099919;28;20418;-65
2021/05/11 08:22:50;;;;;;;5.53;3.57;;;;;;;13.55;69.08;100598.50;5099153;28;20430;-65
2021/05/11 08:28:01;;;;;;;3.93;3.50;;;;;;;13.37;71.03;100597.72;5104189;28;20444;-65
2021/05/11 08:30:27;;;;;;;7.77;3.73;;;;;;;13.28;70.50;100610.81;5101693;28;20482;-65
2021/05/11 08:32:52;;;;;;;5.10;3.70;;;;;;;13.16;70.95;100622.19;5106187;28;20433;-65
2021/05/11 08:35:18;;;;;;;3.93;3.40;;;;;;;12.95;71.70;100629.22;5101458;28;20478;-64
2021/05/11 08:37:44;;;;;;;4.33;3.57;;;;;;;13.88;70.26;100599.19;5112352;28;20187;-67
2021/05/11 08:40:10;;;;;;;4.30;3.40;;;;;;;14.56;67.34;100598.66;5112750;28;20186;-65
2021/05/11 08:42:35;;;;;;;5.53;3.80;;;;;;;14.93;65.64;100593.09;5138983;27;20253;-65
2021/05/11 08:45:09;;;;;;;7.17;4.47;;;;;;;15.02;66.29;100579.88;5138616;27;20900;-66
2021/05/11 08:47:48;;;;;;;4.37;3.50;;;;;;;15.02;66.52;100574.63;5138528;27;20170;-67
2021/05/11 08:50:13;;;;;;;5.43;3.70;;;;;;;15.15;64.39;100576.22;5116097;27;20535;-65
2021/05/11 08:55:25;;;;;;;5.97;3.27;;;;;;;14.13;67.76;100571.91;5117221;28;20187;-64
2021/05/11 09:14:46;;;;;;;4.30;3.10;;;;;;;13.58;69.12;100510.28;5100508;28;20699;-66
2021/05/11 09:25:18;;;;;;;5.27;3.43;;;;;;;13.54;69.46;100469.28;5104034;28;20484;-62
2021/05/11 09:33:17;;;;;;;6.73;3.10;;;;;;;14.48;65.58;100459.72;5090554;28;20435;-64
2021/05/11 09:55:31;;;;;;;5.10;3.10;;;;;;;15.13;64.70;100508.84;5105825;28;20464;-64
2021/05/11 09:58:14;;;;;;;3.90;3.20;;;;;;;15.07;64.00;100506.28;5106574;28;20404;-65
2021/05/11 10:01:25;;;;;;;5.90;3.83;;;;;;;15.47;64.42;100496.13;5106286;28;20387;-65
2021/05/11 10:12:50;;;;;;;6.70;3.43;;;;;;;14.48;65.81;100402.03;5109947;27;20399;-62
2021/05/11 10:40:49;;;;;;;4.00;3.70;;;;;;;16.46;61.28;100510.31;5100717;27;20420;-64
2021/05/11 10:48:41;;;;;;;6.03;3.57;;;;;;;16.32;59.67;100504.44;5099795;28;20472;-63
2021/05/11 10:51:18;;;;;;;7.80;4.53;;;;;;;16.94;58.78;100505.91;5099388;28;20388;-63
2021/05/11 10:53:46;;;;;;;6.60;3.60;;;;;;;16.89;58.95;100506.00;5099264;28;20439;-64
2021/05/11 10:56:26;;;;;;;3.57;3.10;;;;;;;17.03;58.42;100508.34;5110582;28;20432;-64
2021/05/11 11:01:58;;;;;;;4.90;3.30;;;;;;;17.50;57.30;100513.50;5099467;28;20465;-63
2021/05/11 11:04:32;;;;;;;5.17;3.30;;;;;;;16.82;58.02;100523.66;5106820;28;20411;-63
2021/05/11 11:07:00;;;;;;;4.80;3.50;;;;;;;16.55;59.03;100521.53;5110522;28;20514;-64
2021/05/11 11:09:29;;;;;;;5.03;3.40;;;;;;;16.98;59.27;100516.38;5119357;28;20496;-64
2021/05/11 11:11:54;;;;;;;3.30;3.00;;;;;;;17.49;56.58;100511.75;5119386;28;20413;-63
2021/05/11 11:14:20;;;;;;;6.80;3.77;;;;;;;17.96;55.59;100511.56;5105118;28;20470;-63
2021/05/11 11:16:46;;;;;;;9.70;3.80;;;;;;;18.35;53.65;100514.97;5099239;28;20242;-63
2021/05/11 11:19:12;;;;;;;3.37;3.07;;;;;;;17.19;54.92;100503.63;5098575;28;20202;-62
2021/05/11 11:24:37;;;;;;;3.93;3.20;;;;;;;17.94;53.38;100497.53;5114351;28;20447;-63
2021/05/11 11:27:03;;;;;;;5.00;3.20;;;;;;;16.70;56.97;100501.97;5108915;28;20510;-62
2021/05/11 11:29:28;;;;;;;6.17;3.50;;;;;;;17.24;55.13;100474.53;5110125;28;20517;-64
2021/05/11 11:31:54;;;;;;;4.20;2.80;;;;;;;17.82;53.75;100473.19;5117288;28;20756;-64
2021/05/11 11:34:21;;;;;;;3.73;3.40;;;;;;;18.22;53.03;100473.13;5099498;28;20172;-65
2021/05/11 11:36:55;;;;;;;4.40;2.90;;;;;;;17.89;54.25;100479.19;5098830;28;20373;-63
2021/05/11 11:39:44;;;;;;;6.60;3.40;;;;;;;18.93;51.94;100489.66;5106722;28;20445;-62
2021/05/11 11:42:24;;;;;;;3.23;2.80;;;;;;;18.46;51.65;100496.19;5115164;27;20528;-63
2021/05/11 11:44:55;;;;;;;3.00;2.70;;;;;;;18.70;51.12;100499.09;5115532;28;20528;-62
2021/05/11 11:47:23;;;;;;;5.57;3.37;;;;;;;18.81;50.27;100502.28;5118573;28;20388;-62
2021/05/11 11:49:51;;;;;;;9.33;3.77;;;;;;;17.73;52.17;100512.97;5117638;28;20440;-61
2021/05/11 12:00:18;;;;;;;4.40;3.13;;;;;;;18.20;51.36;100480.19;5108107;28;20754;-64
2021/05/11 12:03:13;;;;;;;4.30;2.83;;;;;;;17.98;50.20;100493.94;5117652;28;20395;-65
2021/05/11 12:05:53;;;;;;;4.23;3.00;;;;;;;17.91;50.48;100493.19;5109418;28;20878;-65
2021/05/11 12:08:25;;;;;;;3.43;2.30;;;;;;;17.61;51.36;100481.63;5114513;27;20443;-63
2021/05/11 12:10:58;;;;;;;3.73;2.80;;;;;;;17.50;51.71;100479.25;5100330;28;20436;-64
2021/05/11 12:13:25;;;;;;;3.50;2.87;;;;;;;17.84;50.24;100471.38;5118317;28;20504;-64
2021/05/11 12:16:11;;;;;;;3.57;2.63;;;;;;;16.42;52.34;100466.53;5102892;28;20449;-64
2021/05/11 12:19:00;;;;;;;3.30;2.57;;;;;;;16.90;51.84;100455.09;5101569;28;20427;-63
2021/05/11 12:21:26;;;;;;;3.60;2.53;;;;;;;16.36;53.40;100463.13;5101827;28;20388;-64
2021/05/11 12:24:05;;;;;;;3.67;2.97;;;;;;;16.61;53.04;100459.13;5114275;28;20860;-64
2021/05/11 12:26:31;;;;;;;12.73;9.47;;;;;;;17.83;50.93;100459.09;5108269;28;20306;-64
2021/05/11 12:29:05;;;;;;;14.27;11.83;;;;;;;17.46;50.96;100481.06;5097632;28;20509;-64
2021/05/11 12:31:37;;;;;;;6.73;4.10;;;;;;;17.80;49.92;100474.13;5097616;28;20187;-64
2021/05/11 12:34:08;;;;;;;3.00;2.70;;;;;;;17.57;49.28;100456.25;5097635;28;20497;-64
2021/05/11 12:36:45;;;;;;;3.77;2.90;;;;;;;16.75;52.57;100460.63;5113845;28;20726;-64
2021/05/11 12:42:19;;;;;;;2.93;2.50;;;;;;;17.42;51.05;100444.28;5103428;28;20409;-65
2021/05/11 12:44:46;;;;;;;3.60;3.20;;;;;;;17.79;50.53;100448.66;5098933;28;20404;-67
2021/05/11 12:47:14;;;;;;;4.27;2.70;;;;;;;17.37;49.94;100457.56;5117951;28;20631;-65
2021/05/11 12:49:40;;;;;;;6.53;2.80;;;;;;;17.85;48.78;100444.09;5117379;28;20401;-65
2021/05/11 12:52:08;;;;;;;3.53;3.10;;;;;;;17.37;50.61;100444.38;5117978;28;20913;-65
2021/05/11 12:54:49;;;;;;;4.87;3.10;;;;;;;17.53;49.94;100433.50;5115456;28;20805;-65
2021/05/11 12:57:30;;;;;;;3.10;2.80;;;;;;;17.36;50.48;100437.41;5097900;28;20385;-64
2021/05/11 13:00:10;;;;;;;4.23;3.07;;;;;;;17.12;50.88;100429.16;5117585;28;20417;-63
2021/05/11 13:16:51;;;;;;;2.93;2.63;;;;;;;17.37;50.35;100412.75;5116512;28;20413;-64
2021/05/11 13:19:51;;;;;;;7.00;2.90;;;;;;;16.63;52.36;100423.13;5100587;28;20470;-64
2021/05/11 13:22:29;;;;;;;4.70;3.03;;;;;;;17.13;51.66;100430.00;5111831;28;20814;-64
2021/05/11 13:25:17;;;;;;;4.93;3.30;;;;;;;17.15;51.08;100423.81;5112951;28;20443;-64
2021/05/11 13:27:52;;;;;;;4.03;3.00;;;;;;;17.40;50.72;100431.16;5110229;28;20431;-64
2021/05/11 13:30:34;;;;;;;3.93;2.87;;;;;;;17.68;50.56;100434.00;5121582;28;20388;-63
2021/05/11 13:35:31;;;;;;;4.93;3.10;;;;;;;17.80;50.61;100427.53;5114927;28;20449;-64
2021/05/11 13:37:57;;;;;;;4.93;3.47;;;;;;;17.37;50.77;100423.31;5121129;28;20432;-64
2021/05/11 13:40:22;;;;;;;4.73;3.10;;;;;;;17.53;51.24;100426.44;5124831;27;20504;-63
2021/05/11 13:42:47;;;;;;;3.30;3.00;;;;;;;17.73;50.59;100425.94;5120300;27;20191;-64
2021/05/11 13:45:13;;;;;;;4.37;3.50;;;;;;;17.38;51.16;100429.47;5117700;28;20569;-63
2021/05/11 13:47:42;;;;;;;3.37;3.07;;;;;;;17.72;50.47;100431.28;5121261;28;20441;-64
2021/05/11 13:50:11;;;;;;;3.73;3.43;;;;;;;17.55;51.09;100421.13;5120853;28;20312;-64
2021/05/11 13:52:36;;;;;;;6.23;3.73;;;;;;;17.48;51.64;100433.59;5110461;28;20838;-64
2021/05/11 13:55:11;;;;;;;5.80;3.43;;;;;;;17.85;50.47;100438.81;5123268;27;20437;-64
2021/05/11 14:03:04;;;;;;;4.87;3.87;;;;;;;17.43;52.00;100438.13;5120568;28;20829;-63
2021/05/11 14:05:30;;;;;;;5.57;3.40;;;;;;;17.68;51.42;100443.66;5120611;28;20443;-63
2021/05/11 14:07:55;;;;;;;5.17;4.67;;;;;;;17.72;51.49;100447.94;5118280;28;20252;-65
2021/05/11 14:10:22;;;;;;;3.73;3.43;;;;;;;17.99;51.08;100456.09;5100619;28;20492;-65
2021/05/11 14:12:47;;;;;;;11.70;5.70;;;;;;;17.62;51.62;100443.81;5110582;28;20170;-64
2021/05/11 14:15:13;;;;;;;4.67;4.13;;;;;;;18.56;49.48;100437.88;5120953;27;20396;-65
2021/05/11 14:17:38;;;;;;;5.80;3.70;;;;;;;18.47;50.31;100436.38;5119169;28;20677;-63
2021/05/11 14:20:04;;;;;;;6.13;3.80;;;;;;;18.30;51.12;100435.03;5118269;28;20175;-64
2021/05/11 14:22:29;;;;;;;5.93;3.90;;;;;;;18.05;52.02;100448.03;5106780;28;20191;-63
2021/05/11 14:24:55;;;;;;;5.37;3.40;;;;;;;17.94;52.40;100457.97;5099694;28;20265;-63
2021/05/11 14:27:21;;;;;;;5.40;3.37;;;;;;;17.04;54.47;100454.78;5099889;28;20228;-64
2021/05/11 14:29:47;;;;;;;4.90;4.03;;;;;;;17.44;54.57;100459.16;5101848;28;20183;-63
2021/05/11 14:32:12;;;;;;;6.33;3.30;;;;;;;17.84;53.26;100450.28;5098997;28;20423;-63
2021/05/11 14:34:38;;;;;;;4.10;3.13;;;;;;;17.97;52.30;100450.00;5099858;28;20176;-64
2021/05/11 14:37:04;;;;;;;3.83;3.53;;;;;;;17.50;53.90;100460.78;5099450;28;20172;-64
2021/05/11 14:39:29;;;;;;;3.80;3.40;;;;;;;17.15;54.79;100463.31;5100835;28;20192;-63
2021/05/11 14:41:54;;;;;;;11.73;3.97;;;;;;;17.52;55.19;100461.59;5136126;27;20171;-64
2021/05/11 14:44:21;;;;;;;3.87;3.30;;;;;;;18.28;51.90;100457.97;5140495;27;20232;-65
2021/05/11 14:46:47;;;;;;;3.80;3.40;;;;;;;17.66;53.18;100456.03;5140453;27;20251;-64
2021/05/11 14:49:12;;;;;;;3.67;3.37;;;;;;;18.16;52.65;100443.34;5118530;27;20440;-64
2021/05/11 14:51:37;;;;;;;3.80;3.40;;;;;;;17.61;53.53;100440.28;5115421;28;20191;-64
2021/05/11 14:54:03;;;;;;;3.80;3.47;;;;;;;17.23;54.53;100441.22;5109480;28;20176;-64
2021/05/11 14:56:29;;;;;;;3.90;3.43;;;;;;;17.15;55.40;100439.59;5107392;28;20180;-63
2021/05/11 14:58:54;;;;;;;3.43;3.13;;;;;;;17.61;53.86;100452.63;5104185;28;20836;-64
2021/05/11 15:01:20;;;;;;;4.90;3.70;;;;;;;18.00;53.04;100461.34;5119763;28;20167;-65
2021/05/11 15:03:45;;;;;;;6.07;4.10;;;;;;;17.74;53.80;100459.34;5120169;28;20559;-64
2021/05/11 15:06:10;;;;;;;5.40;3.97;;;;;;;18.05;53.07;100462.97;5119678;27;20565;-64
2021/05/11 15:08:36;;;;;;;5.83;3.57;;;;;;;18.24;52.50;100460.72;5109583;28;20273;-63
2021/05/11 15:11:01;;;;;;;13.93;10.47;;;;;;;18.13;53.29;100456.63;5099375;28;20593;-64
2021/05/11 15:13:27;;;;;;;4.00;3.20;;;;;;;18.03;52.86;100457.75;5115087;28;20176;-65
2021/05/11 15:15:53;;;;;;;4.60;3.83;;;;;;;18.09;53.04;100467.28;5119452;28;20244;-64